Time;durP1;ratioP1;P1;durP2;ratioP2;P2;SDS_P1;SDS_P2;PMS_P1;PMS_P2;Temp;Humidity;BMP_temperature;BMP_pressure;BME280_temperature;BME280_humidity;BME280_pressure;Samples;Min_cycle;Max_cycle;Signal;HPM_P1;HPM_P2
2021/03/09 00:00:48;;;;;;;8.20;4.65;;;;;;;;;;5042187;28;20175;-83
2021/03/09 00:03:15;;;;;;;6.63;5.30;;;;;;;;;;5043092;28;20552;-83
2021/03/09 00:05:42;;;;;;;4.30;3.90;;;;;;;;;;5042780;28;20207;-82
2021/03/09 00:08:13;;;;;;;7.70;4.93;;;;;;;;;;5060567;23;20226;-80
2021/03/09 00:10:49;;;;;;;5.22;3.83;;;;;;;;;;5043639;28;20234;-81
2021/03/09 00:13:18;;;;;;;5.93;4.80;;;;;;;;;;5044361;28;20171;-81
2021/03/09 00:15:54;;;;;;;4.28;3.28;;;;;;;;;;5043565;28;20183;-82
2021/03/09 00:18:21;;;;;;;5.35;4.05;;;;;;;;;;5044116;28;20194;-81
2021/03/09 00:20:50;;;;;;;4.22;3.85;;;;;;;;;;5045976;28;20181;-80
2021/03/09 00:23:17;;;;;;;8.82;4.85;;;;;;;;;;5054139;28;20201;-81
2021/03/09 00:25:43;;;;;;;4.78;4.07;;;;;;;;;;5054607;28;20177;-78
2021/03/09 00:28:10;;;;;;;5.20;4.35;;;;;;;;;;5057630;28;20266;-81
2021/03/09 00:30:36;;;;;;;5.30;3.53;;;;;;;;;;5041035;28;20187;-80
2021/03/09 00:33:03;;;;;;;9.43;3.90;;;;;;;;;;5040182;28;20178;-81
2021/03/09 00:35:29;;;;;;;9.32;4.57;;;;;;;;;;5040609;28;20204;-81
2021/03/09 00:37:57;;;;;;;4.13;3.72;;;;;;;;;;5024604;28;20218;-81
2021/03/09 00:40:23;;;;;;;6.50;4.30;;;;;;;;;;5039774;28;20258;-81
2021/03/09 00:42:50;;;;;;;7.10;3.63;;;;;;;;;;5038956;28;20171;-81
2021/03/09 00:45:17;;;;;;;4.57;3.75;;;;;;;;;;5038772;28;20624;-80
2021/03/09 00:47:44;;;;;;;9.32;5.10;;;;;;;;;;5039719;28;20213;-80
2021/03/09 00:50:10;;;;;;;4.80;4.30;;;;;;;;;;5038973;28;20301;-80
2021/03/09 00:52:37;;;;;;;6.78;4.57;;;;;;;;;;5038144;28;20305;-80
2021/03/09 00:55:04;;;;;;;6.57;4.35;;;;;;;;;;5040180;28;20207;-80
2021/03/09 00:57:30;;;;;;;7.65;5.28;;;;;;;;;;5040653;28;20270;-79
2021/03/09 00:59:57;;;;;;;6.88;3.88;;;;;;;;;;5057998;28;20542;-82
2021/03/09 01:02:23;;;;;;;7.72;4.13;;;;;;;;;;5058543;28;20163;-82
2021/03/09 01:04:50;;;;;;;6.65;4.25;;;;;;;;;;5058551;28;20167;-83
2021/03/09 01:07:20;;;;;;;5.63;4.50;;;;;;;;;;5029291;28;20199;-82
2021/03/09 01:09:47;;;;;;;5.40;4.88;;;;;;;;;;5037829;28;20183;-81
2021/03/09 01:12:14;;;;;;;4.78;4.05;;;;;;;;;;5038564;28;20229;-81
2021/03/09 01:14:40;;;;;;;6.53;4.68;;;;;;;;;;5021688;28;20202;-81
2021/03/09 01:17:08;;;;;;;6.28;4.70;;;;;;;;;;5037851;28;20674;-80
2021/03/09 01:19:35;;;;;;;6.10;5.18;;;;;;;;;;5037508;28;20167;-80
2021/03/09 01:22:02;;;;;;;10.23;5.10;;;;;;;;;;5037150;28;20181;-82
2021/03/09 01:24:28;;;;;;;5.97;5.05;;;;;;;;;;5037270;28;20175;-81
2021/03/09 01:26:54;;;;;;;5.80;4.70;;;;;;;;;;5038164;28;20228;-81
2021/03/09 01:29:21;;;;;;;5.88;5.28;;;;;;;;;;5037237;28;20186;-82
2021/03/09 01:31:49;;;;;;;7.53;5.05;;;;;;;;;;5038310;28;20179;-80
2021/03/09 01:34:15;;;;;;;8.35;3.97;;;;;;;;;;5037804;28;20750;-79
2021/03/09 01:36:42;;;;;;;5.45;4.95;;;;;;;;;;5036905;28;20178;-82
2021/03/09 01:39:09;;;;;;;5.80;4.53;;;;;;;;;;5004555;28;20246;-80
2021/03/09 01:41:36;;;;;;;8.05;6.13;;;;;;;;;;5038931;28;20179;-78
2021/03/09 01:44:04;;;;;;;6.45;5.53;;;;;;;;;;5038316;28;20217;-79
2021/03/09 01:46:32;;;;;;;9.40;5.15;;;;;;;;;;5038493;28;20262;-80
2021/03/09 01:48:59;;;;;;;6.25;4.25;;;;;;;;;;5039023;28;20205;-80
2021/03/09 01:51:26;;;;;;;11.07;4.70;;;;;;;;;;5041404;28;20206;-80
2021/03/09 01:53:53;;;;;;;11.20;5.10;;;;;;;;;;5039488;28;20209;-81
2021/03/09 01:56:19;;;;;;;8.10;4.32;;;;;;;;;;5022976;28;20198;-80
2021/03/09 01:58:49;;;;;;;7.60;5.00;;;;;;;;;;5024025;28;20202;-81
2021/03/09 02:01:16;;;;;;;6.68;4.00;;;;;;;;;;5042647;28;20171;-81
2021/03/09 02:03:43;;;;;;;5.00;4.50;;;;;;;;;;5040914;28;20170;-81
2021/03/09 02:06:11;;;;;;;5.47;4.07;;;;;;;;;;5044628;28;20313;-80
2021/03/09 02:08:39;;;;;;;7.25;4.80;;;;;;;;;;5043726;28;20211;-79
2021/03/09 02:11:09;;;;;;;5.18;4.30;;;;;;;;;;5047136;28;20179;-78
2021/03/09 02:13:57;;;;;;;8.50;4.38;;;;;;;;;;5044956;28;20545;-81
2021/03/09 02:16:30;;;;;;;5.25;4.47;;;;;;;;;;5042533;28;20194;-81
2021/03/09 02:19:15;;;;;;;5.28;4.78;;;;;;;;;;5044214;28;20191;-81
2021/03/09 02:21:47;;;;;;;4.70;4.03;;;;;;;;;;5045640;28;20627;-81
2021/03/09 02:24:33;;;;;;;8.15;5.07;;;;;;;;;;5047167;28;20175;-81
2021/03/09 02:27:15;;;;;;;6.45;5.05;;;;;;;;;;5028726;28;20671;-81
2021/03/09 02:29:42;;;;;;;5.43;4.72;;;;;;;;;;5043941;28;20163;-79
2021/03/09 02:32:16;;;;;;;7.00;5.53;;;;;;;;;;5026037;28;20604;-81
2021/03/09 02:34:46;;;;;;;11.20;4.93;;;;;;;;;;5025135;28;20203;-81
2021/03/09 02:37:14;;;;;;;6.93;5.45;;;;;;;;;;5041192;28;20191;-80
2021/03/09 02:39:43;;;;;;;5.18;4.30;;;;;;;;;;5060765;28;20178;-82
2021/03/09 02:42:10;;;;;;;9.40;4.78;;;;;;;;;;5044713;28;20163;-80
2021/03/09 02:44:38;;;;;;;7.32;5.65;;;;;;;;;;5060987;28;20163;-83
2021/03/09 02:47:06;;;;;;;6.70;5.45;;;;;;;;;;5048206;28;20191;-81
2021/03/09 02:49:33;;;;;;;8.05;5.93;;;;;;;;;;5041609;28;20171;-81
2021/03/09 02:52:01;;;;;;;6.57;5.85;;;;;;;;;;5041864;28;20163;-81
2021/03/09 02:54:29;;;;;;;10.75;5.28;;;;;;;;;;5027719;28;20237;-81
2021/03/09 02:56:56;;;;;;;5.95;4.38;;;;;;;;;;5043552;28;20172;-81
2021/03/09 02:59:23;;;;;;;7.63;5.30;;;;;;;;;;5041321;28;20171;-81
2021/03/09 03:01:50;;;;;;;9.15;5.97;;;;;;;;;;5041837;28;20214;-80
2021/03/09 03:04:17;;;;;;;7.50;4.60;;;;;;;;;;5041410;28;20179;-81
2021/03/09 03:06:45;;;;;;;14.02;7.38;;;;;;;;;;5041215;28;20197;-82
2021/03/09 03:09:19;;;;;;;6.35;5.40;;;;;;;;;;5041305;28;20187;-81
2021/03/09 03:11:46;;;;;;;6.63;5.68;;;;;;;;;;5043426;28;20674;-81
2021/03/09 03:14:14;;;;;;;9.02;5.28;;;;;;;;;;5039479;28;20195;-81
2021/03/09 03:16:41;;;;;;;7.35;6.63;;;;;;;;;;5040158;28;20639;-82
2021/03/09 03:19:08;;;;;;;7.05;4.95;;;;;;;;;;5025244;28;20175;-81
2021/03/09 03:21:36;;;;;;;9.85;5.70;;;;;;;;;;5053288;28;20190;-81
2021/03/09 03:24:05;;;;;;;12.18;5.65;;;;;;;;;;5030332;28;20159;-81
2021/03/09 03:26:32;;;;;;;6.85;5.32;;;;;;;;;;5041199;28;20612;-81
2021/03/09 03:29:00;;;;;;;7.57;6.78;;;;;;;;;;5025239;28;20198;-81
2021/03/09 03:31:26;;;;;;;9.70;6.45;;;;;;;;;;5024877;28;20178;-81
2021/03/09 03:33:53;;;;;;;11.70;5.90;;;;;;;;;;5024493;28;20211;-81
2021/03/09 03:36:21;;;;;;;5.32;4.85;;;;;;;;;;5024493;28;20168;-82
2021/03/09 03:38:48;;;;;;;8.48;6.03;;;;;;;;;;5040929;28;20636;-81
2021/03/09 03:41:14;;;;;;;8.18;5.72;;;;;;;;;;5041655;28;20585;-81
2021/03/09 03:43:43;;;;;;;8.73;6.38;;;;;;;;;;5025104;28;20175;-80
2021/03/09 03:46:10;;;;;;;8.77;6.13;;;;;;;;;;5025824;28;20167;-80
2021/03/09 03:48:38;;;;;;;16.45;8.02;;;;;;;;;;5043241;28;20202;-80
2021/03/09 03:51:12;;;;;;;9.75;5.60;;;;;;;;;;5028014;28;20163;-79
2021/03/09 03:53:51;;;;;;;;;;;;;;;;;;;;;
2021/03/09 03:56:17;;;;;;;8.50;6.57;;;;;;;;;;5044327;28;20252;-81
2021/03/09 03:58:53;;;;;;;11.55;5.93;;;;;;;;;;5028145;28;20183;-81
2021/03/09 04:01:21;;;;;;;6.22;4.90;;;;;;;;;;5041756;28;20217;-81
2021/03/09 04:03:50;;;;;;;5.45;4.80;;;;;;;;;;5042006;28;20201;-81
2021/03/09 04:06:25;;;;;;;9.05;5.78;;;;;;;;;;5042387;28;20210;-80
2021/03/09 04:08:56;;;;;;;9.43;5.03;;;;;;;;;;5027045;28;20232;-82
2021/03/09 04:11:22;;;;;;;9.23;5.13;;;;;;;;;;5028110;28;20187;-81
2021/03/09 04:13:50;;;;;;;5.32;4.85;;;;;;;;;;5026399;28;20195;-80
2021/03/09 04:16:16;;;;;;;8.13;5.38;;;;;;;;;;5043651;28;20203;-80
2021/03/09 04:18:43;;;;;;;11.30;6.47;;;;;;;;;;5037392;28;20194;-80
2021/03/09 04:21:10;;;;;;;6.50;4.63;;;;;;;;;;5042231;28;20179;-83
2021/03/09 04:23:38;;;;;;;6.15;5.45;;;;;;;;;;5042407;28;20168;-82
2021/03/09 04:26:05;;;;;;;7.65;6.85;;;;;;;;;;5054873;28;20198;-81
2021/03/09 04:28:32;;;;;;;7.53;6.47;;;;;;;;;;5025876;28;20199;-81
2021/03/09 04:30:58;;;;;;;8.30;5.60;;;;;;;;;;5041447;28;20167;-81
2021/03/09 04:33:28;;;;;;;7.35;5.88;;;;;;;;;;5023808;28;20183;-81
2021/03/09 04:35:58;;;;;;;8.85;6.82;;;;;;;;;;5040871;28;20551;-83
2021/03/09 04:38:26;;;;;;;6.40;5.78;;;;;;;;;;5039148;28;20206;-82
2021/03/09 04:40:53;;;;;;;7.03;6.10;;;;;;;;;;5039588;28;20229;-81
2021/03/09 04:43:19;;;;;;;8.77;5.57;;;;;;;;;;5023152;28;20511;-81
2021/03/09 04:45:46;;;;;;;6.38;5.68;;;;;;;;;;5024236;28;20203;-81
2021/03/09 04:48:13;;;;;;;8.23;4.38;;;;;;;;;;5023032;28;20290;-81
2021/03/09 04:50:40;;;;;;;11.57;6.15;;;;;;;;;;5023269;28;20294;-81
2021/03/09 04:53:06;;;;;;;8.95;5.45;;;;;;;;;;5040900;28;20643;-81
2021/03/09 04:55:33;;;;;;;5.78;5.05;;;;;;;;;;5040215;28;20199;-82
2021/03/09 04:58:01;;;;;;;5.68;5.25;;;;;;;;;;5040608;28;20214;-81
2021/03/09 05:00:28;;;;;;;5.20;4.70;;;;;;;;;;5040037;28;20657;-82
2021/03/09 05:02:56;;;;;;;9.80;7.10;;;;;;;;;;5040714;28;20178;-81
2021/03/09 05:05:23;;;;;;;9.95;5.05;;;;;;;;;;5040337;28;20709;-81
2021/03/09 05:07:51;;;;;;;9.00;6.70;;;;;;;;;;5024220;28;20199;-81
2021/03/09 05:10:18;;;;;;;7.95;5.63;;;;;;;;;;5025147;28;20175;-81
2021/03/09 05:12:45;;;;;;;11.07;8.55;;;;;;;;;;5026639;28;20336;-82
2021/03/09 05:15:13;;;;;;;10.73;6.28;;;;;;;;;;5026067;28;20230;-81
2021/03/09 05:17:40;;;;;;;11.10;6.72;;;;;;;;;;5041185;28;20246;-81
2021/03/09 05:20:07;;;;;;;6.22;5.63;;;;;;;;;;5008389;28;20550;-84
2021/03/09 05:22:33;;;;;;;8.50;6.65;;;;;;;;;;5041715;28;20175;-81
2021/03/09 05:24:59;;;;;;;7.28;6.57;;;;;;;;;;5037907;28;20159;-80
2021/03/09 05:27:26;;;;;;;14.00;7.85;;;;;;;;;;5056011;28;20196;-81
2021/03/09 05:29:52;;;;;;;11.30;7.10;;;;;;;;;;5056814;28;20159;-81
2021/03/09 05:32:18;;;;;;;8.82;8.00;;;;;;;;;;5030729;28;20171;-81
2021/03/09 05:34:45;;;;;;;11.25;6.90;;;;;;;;;;5027222;28;20207;-81
2021/03/09 05:37:11;;;;;;;10.88;7.15;;;;;;;;;;5022915;28;20282;-81
2021/03/09 05:39:38;;;;;;;6.85;4.95;;;;;;;;;;5025393;28;20666;-81
2021/03/09 05:42:06;;;;;;;7.30;6.53;;;;;;;;;;5042380;28;20229;-81
2021/03/09 05:44:37;;;;;;;10.73;6.60;;;;;;;;;;5026417;28;20209;-82
2021/03/09 05:47:05;;;;;;;8.07;6.15;;;;;;;;;;5027403;28;20199;-81
2021/03/09 05:49:35;;;;;;;8.63;6.30;;;;;;;;;;5043112;28;20168;-79
2021/03/09 05:52:03;;;;;;;9.20;6.68;;;;;;;;;;5040480;28;20619;-80
2021/03/09 05:54:29;;;;;;;9.10;6.93;;;;;;;;;;5021709;28;20199;-81
2021/03/09 05:56:57;;;;;;;7.93;7.00;;;;;;;;;;5040149;28;20273;-80
2021/03/09 05:59:25;;;;;;;9.85;7.07;;;;;;;;;;5040561;28;20186;-81
2021/03/09 06:01:51;;;;;;;11.43;8.18;;;;;;;;;;5040653;28;20186;-85
2021/03/09 06:04:18;;;;;;;21.20;14.13;;;;;;;;;;5041098;28;20167;-84
2021/03/09 06:06:45;;;;;;;9.23;8.25;;;;;;;;;;5029905;28;20195;-83
2021/03/09 06:09:31;;;;;;;20.58;9.82;;;;;;;;;;5057106;22;20223;-84
2021/03/09 06:12:07;;;;;;;7.25;6.45;;;;;;;;;;5022449;28;20175;-83
2021/03/09 06:14:39;;;;;;;17.05;9.63;;;;;;;;;;5023128;28;20191;-83
2021/03/09 06:17:13;;;;;;;8.73;6.68;;;;;;;;;;5047856;28;20167;-84
2021/03/09 06:19:42;;;;;;;8.52;7.63;;;;;;;;;;5022047;28;20168;-83
2021/03/09 06:22:11;;;;;;;9.00;7.72;;;;;;;;;;5023346;28;20631;-84
2021/03/09 06:24:37;;;;;;;10.82;7.35;;;;;;;;;;5015998;28;20172;-82
2021/03/09 06:27:27;;;;;;;9.93;7.38;;;;;;;;;;5032989;28;20156;-82
2021/03/09 06:29:54;;;;;;;17.60;7.22;;;;;;;;;;5032895;28;20179;-84
2021/03/09 06:32:20;;;;;;;14.40;8.82;;;;;;;;;;5016768;28;20175;-83
2021/03/09 06:34:54;;;;;;;16.70;7.68;;;;;;;;;;5016468;28;20203;-82
2021/03/09 06:37:27;;;;;;;8.48;6.95;;;;;;;;;;5012806;28;20180;-84
2021/03/09 06:39:54;;;;;;;8.45;7.65;;;;;;;;;;5004948;28;20508;-84
2021/03/09 06:42:24;;;;;;;10.00;6.95;;;;;;;;;;5009595;28;20222;-83
2021/03/09 06:44:55;;;;;;;13.10;8.82;;;;;;;;;;5007063;28;20172;-83
2021/03/09 06:47:42;;;;;;;12.35;7.60;;;;;;;;;;5005467;28;20182;-84
2021/03/09 06:50:12;;;;;;;18.67;9.00;;;;;;;;;;5018890;28;20176;-83
2021/03/09 06:52:47;;;;;;;9.80;8.75;;;;;;;;;;5001525;28;20240;-82
2021/03/09 06:55:30;;;;;;;11.10;8.02;;;;;;;;;;5002593;28;20196;-82
2021/03/09 06:58:16;;;;;;;8.40;7.10;;;;;;;;;;5024804;28;20196;-84
2021/03/09 07:00:57;;;;;;;;;;;;;;;;;;;;;
2021/03/09 07:03:43;;;;;;;14.93;7.90;;;;;;;;;;5024164;28;20836;-83
2021/03/09 07:06:47;;;;;;;13.73;8.82;;;;;;;;;;5024999;28;20180;-83
2021/03/09 07:09:34;;;;;;;12.10;9.63;;;;;;;;;;5024618;28;20313;-82
2021/03/09 07:12:03;;;;;;;12.82;8.38;;;;;;;;;;5007967;28;20656;-84
2021/03/09 07:14:34;;;;;;;9.50;6.95;;;;;;;;;;5008851;28;20212;-82
2021/03/09 07:17:02;;;;;;;11.82;8.25;;;;;;;;;;5010186;28;20214;-83
2021/03/09 07:19:36;;;;;;;9.18;7.32;;;;;;;;;;5005463;28;20226;-83
2021/03/09 07:22:03;;;;;;;11.82;7.80;;;;;;;;;;5007217;28;20166;-84
2021/03/09 07:24:30;;;;;;;11.73;8.55;;;;;;;;;;5006162;28;20178;-82
2021/03/09 07:26:58;;;;;;;12.25;8.30;;;;;;;;;;5006759;28;20195;-83
2021/03/09 07:29:28;;;;;;;10.40;8.57;;;;;;;;;;5006782;28;20223;-85
2021/03/09 07:31:56;;;;;;;9.75;8.23;;;;;;;;;;5008272;28;20251;-85
2021/03/09 07:34:26;;;;;;;10.30;8.10;;;;;;;;;;5009068;28;20196;-84
2021/03/09 07:36:55;;;;;;;10.57;8.27;;;;;;;;;;5025799;28;20152;-85
2021/03/09 07:39:22;;;;;;;9.05;7.15;;;;;;;;;;5010165;28;20195;-84
2021/03/09 07:41:48;;;;;;;36.13;21.45;;;;;;;;;;5009460;28;20180;-84
2021/03/09 07:44:15;;;;;;;12.10;9.35;;;;;;;;;;5025668;28;20206;-85
2021/03/09 07:46:43;;;;;;;11.38;6.97;;;;;;;;;;5025145;28;20207;-83
2021/03/09 07:49:13;;;;;;;12.82;9.07;;;;;;;;;;5025734;28;20199;-83
2021/03/09 07:52:04;;;;;;;13.25;11.43;;;;;;;;;;5024298;28;20494;-83
2021/03/09 07:54:30;;;;;;;13.18;7.50;;;;;;;;;;5007881;28;20231;-84
2021/03/09 07:57:17;;;;;;;12.98;9.63;;;;;;;;;;5024795;28;20162;-85
2021/03/09 07:59:57;;;;;;;12.48;8.75;;;;;;;;;;5022647;28;20175;-85
2021/03/09 08:02:49;;;;;;;10.68;8.00;;;;;;;;;;5008087;28;20548;-86
2021/03/09 08:05:50;;;;;;;14.63;8.65;;;;;;;;;;5023522;28;20178;-83
2021/03/09 08:08:55;;;;;;;26.10;8.43;;;;;;;;;;5017071;28;20298;-86
2021/03/09 08:11:38;;;;;;;11.23;8.30;;;;;;;;;;5036114;28;20191;-84
2021/03/09 08:14:04;;;;;;;10.07;8.50;;;;;;;;;;5019357;28;20208;-82
2021/03/09 08:16:44;;;;;;;13.93;9.05;;;;;;;;;;5029113;28;20185;-81
2021/03/09 08:19:30;;;;;;;13.98;8.20;;;;;;;;;;5012459;28;20191;-82
2021/03/09 08:22:04;;;;;;;11.52;8.00;;;;;;;;;;5028817;28;20183;-83
2021/03/09 08:24:42;;;;;;;13.32;8.77;;;;;;;;;;5028611;28;20167;-82
2021/03/09 08:27:40;;;;;;;13.90;10.75;;;;;;;;;;5012210;28;20203;-82
2021/03/09 08:30:51;;;;;;;12.60;9.32;;;;;;;;;;5015988;28;20179;-82
2021/03/09 08:33:25;;;;;;;18.95;16.95;;;;;;;;;;4960634;29;20177;-81
2021/03/09 08:35:52;;;;;;;17.25;11.88;;;;;;;;;;4960815;29;20205;-84
2021/03/09 08:38:20;;;;;;;12.75;10.52;;;;;;;;;;4961150;29;20190;-84
2021/03/09 08:40:59;;;;;;;16.95;9.48;;;;;;;;;;4960547;29;20185;-82
2021/03/09 08:43:26;;;;;;;10.68;8.02;;;;;;;;;;4956872;29;20182;-83
2021/03/09 08:45:58;;;;;;;12.35;8.88;;;;;;;;;;4971851;29;20158;-79
2021/03/09 08:48:47;;;;;;;11.43;8.43;;;;;;;;;;4949766;29;20202;-83
2021/03/09 08:51:31;;;;;;;12.95;9.02;;;;;;;;;;4946019;29;20177;-83
2021/03/09 08:53:58;;;;;;;16.33;9.98;;;;;;;;;;4946607;29;20217;-81
2021/03/09 08:56:42;;;;;;;12.57;9.43;;;;;;;;;;4963884;29;20222;-85
2021/03/09 08:59:09;;;;;;;15.23;8.82;;;;;;;;;;4947271;29;20198;-84
2021/03/09 09:01:41;;;;;;;7.75;6.95;;;;;;;;;;4945774;29;20182;-82
2021/03/09 09:04:18;;;;;;;13.55;8.18;;;;;;;;;;5000994;28;20248;-84
2021/03/09 09:06:46;;;;;;;12.80;8.02;;;;;;;;;;5005563;28;20180;-83
2021/03/09 09:09:14;;;;;;;12.60;8.73;;;;;;;;;;5025445;28;20207;-83
2021/03/09 09:11:44;;;;;;;12.32;8.45;;;;;;;;;;5012822;28;20183;-83
2021/03/09 09:14:18;;;;;;;13.63;10.80;;;;;;;;;;5029491;28;20264;-84
2021/03/09 09:16:48;;;;;;;17.50;9.60;;;;;;;;;;5029086;28;20155;-84
2021/03/09 09:19:15;;;;;;;32.40;12.05;;;;;;;;;;5007909;28;20258;-85
2021/03/09 09:21:43;;;;;;;17.08;13.02;;;;;;;;;;5024547;28;20188;-83
2021/03/09 09:24:23;;;;;;;23.85;11.38;;;;;;;;;;5004020;28;20194;-84
2021/03/09 09:27:06;;;;;;;30.38;11.38;;;;;;;;;;5017040;28;20195;-84
2021/03/09 09:29:33;;;;;;;8.15;7.30;;;;;;;;;;5004528;28;20203;-83
2021/03/09 09:32:01;;;;;;;8.70;7.80;;;;;;;;;;5021929;28;20542;-84
2021/03/09 09:34:47;;;;;;;;;;;;;;;;;;;;;
2021/03/09 09:37:15;;;;;;;86.32;20.85;;;;;;;;;;5022715;28;20183;-85
2021/03/09 09:39:45;;;;;;;42.15;11.15;;;;;;;;;;5011687;28;20195;-86
2021/03/09 09:42:16;;;;;;;20.50;9.35;;;;;;;;;;5011920;28;20168;-84
2021/03/09 09:44:45;;;;;;;15.68;7.72;;;;;;;;;;5012472;28;20203;-81
2021/03/09 09:47:14;;;;;;;8.05;6.13;;;;;;;;;;5011659;28;20167;-83
2021/03/09 09:49:45;;;;;;;8.13;6.70;;;;;;;;;;5009953;28;20248;-84
2021/03/09 09:52:12;;;;;;;14.98;8.48;;;;;;;;;;5006622;28;20263;-86
2021/03/09 09:54:40;;;;;;;10.77;6.45;;;;;;;;;;5009609;28;20296;-83
2021/03/09 09:57:19;;;;;;;8.23;6.85;;;;;;;;;;5010848;28;20176;-81
2021/03/09 09:59:47;;;;;;;8.98;6.03;;;;;;;;;;5009911;28;20172;-82
2021/03/09 10:02:18;;;;;;;15.23;8.50;;;;;;;;;;5010622;28;20266;-83
2021/03/09 10:04:48;;;;;;;9.07;7.25;;;;;;;;;;5011545;28;20176;-85
2021/03/09 10:07:23;;;;;;;16.08;7.93;;;;;;;;;;5014303;28;20246;-84
2021/03/09 10:10:00;;;;;;;11.20;6.60;;;;;;;;;;5009789;28;20283;-84
2021/03/09 10:12:34;;;;;;;7.90;6.40;;;;;;;;;;5008624;28;20334;-82
2021/03/09 10:15:00;;;;;;;9.05;6.25;;;;;;;;;;5012159;28;20203;-83
2021/03/09 10:17:31;;;;;;;6.57;5.43;;;;;;;;;;5027634;28;20167;-83
2021/03/09 10:19:58;;;;;;;8.30;5.32;;;;;;;;;;5027358;28;20218;-85
2021/03/09 10:22:26;;;;;;;8.80;4.75;;;;;;;;;;5009418;28;20206;-83
2021/03/09 10:24:53;;;;;;;7.13;6.45;;;;;;;;;;5009680;28;20270;-83
2021/03/09 10:27:22;;;;;;;10.38;4.65;;;;;;;;;;5010514;28;20195;-82
2021/03/09 10:29:49;;;;;;;6.78;4.78;;;;;;;;;;5005024;28;20258;-83
2021/03/09 10:32:18;;;;;;;13.75;6.45;;;;;;;;;;5023673;28;20178;-84
2021/03/09 10:34:59;;;;;;;;;;;;;;;;;;;;;
2021/03/09 10:37:39;;;;;;;5.68;5.07;;;;;;;;;;5023972;28;20203;-84
2021/03/09 10:40:07;;;;;;;6.75;4.88;;;;;;;;;;5008238;28;20175;-84
2021/03/09 10:42:38;;;;;;;6.82;4.72;;;;;;;;;;5024475;28;20168;-83
2021/03/09 10:45:20;;;;;;;11.15;5.75;;;;;;;;;;5008511;28;20180;-83
2021/03/09 10:47:56;;;;;;;10.60;4.80;;;;;;;;;;5008138;28;20199;-83
2021/03/09 10:50:24;;;;;;;11.17;4.80;;;;;;;;;;5025211;28;20231;-83
2021/03/09 10:52:51;;;;;;;7.10;3.63;;;;;;;;;;5024697;28;20900;-84
2021/03/09 10:55:20;;;;;;;6.30;3.17;;;;;;;;;;5008961;28;20668;-83
2021/03/09 10:57:47;;;;;;;8.13;5.25;;;;;;;;;;5008524;28;20432;-83
2021/03/09 11:00:16;;;;;;;11.27;6.23;;;;;;;;;;5009431;28;20167;-83
2021/03/09 11:02:43;;;;;;;5.80;4.40;;;;;;;;;;5009785;28;20415;-84
2021/03/09 11:05:10;;;;;;;8.87;6.10;;;;;;;;;;5010366;28;20168;-83
2021/03/09 11:07:46;;;;;;;5.53;3.90;;;;;;;;;;5008838;28;20446;-82
2021/03/09 11:10:21;;;;;;;8.43;4.03;;;;;;;;;;5004864;28;20445;-83
2021/03/09 11:13:17;;;;;;;;;;;;;;;;;;;;;
2021/03/09 11:16:13;;;;;;;6.03;4.90;;;;;;;;;;4965116;29;20785;-83
2021/03/09 11:18:50;;;;;;;;;;;;;;;;;;;;;
2021/03/09 11:21:17;;;;;;;4.47;3.77;;;;;;;;;;4966121;29;20500;-84
2021/03/09 11:23:47;;;;;;;4.77;3.30;;;;;;;;;;4965126;29;20416;-82
2021/03/09 11:26:21;;;;;;;6.07;4.10;;;;;;;;;;4964822;29;20421;-83
2021/03/09 11:28:59;;;;;;;6.70;3.53;;;;;;;;;;4965857;29;20448;-84
2021/03/09 11:31:26;;;;;;;6.40;3.80;;;;;;;;;;4965848;29;20747;-83
2021/03/09 11:33:53;;;;;;;10.60;3.57;;;;;;;;;;4948997;29;20467;-83
2021/03/09 11:36:20;;;;;;;5.53;4.83;;;;;;;;;;4965555;29;20417;-84
2021/03/09 11:38:48;;;;;;;6.47;4.70;;;;;;;;;;4949196;29;20442;-84
2021/03/09 11:41:18;;;;;;;4.30;3.77;;;;;;;;;;4949404;29;20559;-83
2021/03/09 11:43:46;;;;;;;4.33;3.17;;;;;;;;;;4948914;29;20445;-84
2021/03/09 11:46:25;;;;;;;7.20;4.57;;;;;;;;;;4965204;29;20477;-84
2021/03/09 11:48:52;;;;;;;9.77;4.17;;;;;;;;;;4952248;29;20461;-83
2021/03/09 11:51:19;;;;;;;6.30;5.20;;;;;;;;;;4967195;29;20422;-84
2021/03/09 11:53:47;;;;;;;5.00;3.60;;;;;;;;;;5015545;28;20866;-84
2021/03/09 11:56:13;;;;;;;6.70;3.87;;;;;;;;;;5007601;28;20570;-83
2021/03/09 11:58:41;;;;;;;3.47;2.83;;;;;;;;;;5008467;28;20985;-84
2021/03/09 12:01:08;;;;;;;6.37;4.40;;;;;;;;;;5008198;28;20423;-84
2021/03/09 12:03:36;;;;;;;6.40;4.33;;;;;;;;;;5024675;28;20907;-83
2021/03/09 12:06:06;;;;;;;4.70;3.27;;;;;;;;;;5009273;28;20415;-82
2021/03/09 12:08:34;;;;;;;5.53;4.03;;;;;;;;;;5025790;22;20569;-82
2021/03/09 12:11:02;;;;;;;4.90;4.03;;;;;;;;;;5026563;28;20491;-84
2021/03/09 12:13:31;;;;;;;9.03;3.80;;;;;;;;;;5031699;28;20470;-83
2021/03/09 12:15:58;;;;;;;10.37;8.60;;;;;;;;;;5031777;28;20486;-83
2021/03/09 12:18:25;;;;;;;6.20;4.40;;;;;;;;;;5028314;28;20419;-83
2021/03/09 12:20:51;;;;;;;4.83;3.00;;;;;;;;;;5010276;28;20403;-84
2021/03/09 12:23:18;;;;;;;6.70;3.95;;;;;;;;;;5007826;28;20415;-83
2021/03/09 12:25:45;;;;;;;12.45;3.33;;;;;;;;;;5007673;28;20303;-83
2021/03/09 12:28:11;;;;;;;4.68;3.25;;;;;;;;;;5005590;28;20176;-84
2021/03/09 12:30:37;;;;;;;8.03;4.70;;;;;;;;;;5006435;28;20179;-84
2021/03/09 12:33:04;;;;;;;9.30;3.03;;;;;;;;;;5024351;28;20451;-84
2021/03/09 12:35:42;;;;;;;;;;;;;;;;;;;;;
2021/03/09 12:38:09;;;;;;;3.92;3.33;;;;;;;;;;5025646;28;20414;-85
2021/03/09 12:40:36;;;;;;;3.63;3.00;;;;;;;;;;5011705;28;20195;-82
2021/03/09 12:43:02;;;;;;;3.72;3.28;;;;;;;;;;5014645;28;20423;-82
2021/03/09 12:45:29;;;;;;;5.13;3.40;;;;;;;;;;5027688;28;20172;-83
2021/03/09 12:47:57;;;;;;;6.13;5.20;;;;;;;;;;5005126;28;20414;-83
2021/03/09 12:50:24;;;;;;;11.37;8.40;;;;;;;;;;5006962;28;20455;-82
2021/03/09 12:52:51;;;;;;;4.75;3.75;;;;;;;;;;5006561;28;20438;-83
2021/03/09 12:55:18;;;;;;;4.50;4.00;;;;;;;;;;5006177;28;20270;-84
2021/03/09 12:57:44;;;;;;;12.27;3.80;;;;;;;;;;5007009;28;20431;-83
2021/03/09 13:00:13;;;;;;;10.23;4.13;;;;;;;;;;5022147;28;20430;-84
2021/03/09 13:02:41;;;;;;;7.50;3.90;;;;;;;;;;5020792;28;20417;-83
2021/03/09 13:05:19;;;;;;;;;;;;;;;;;;;;;
2021/03/09 13:07:46;;;;;;;6.40;3.60;;;;;;;;;;5017171;28;20419;-82
2021/03/09 13:10:18;;;;;;;11.77;4.63;;;;;;;;;;4992668;28;20465;-84
2021/03/09 13:12:46;;;;;;;4.53;3.17;;;;;;;;;;5024870;28;20508;-84
2021/03/09 13:15:16;;;;;;;3.97;3.30;;;;;;;;;;5025637;28;20446;-83
2021/03/09 13:17:43;;;;;;;4.03;3.40;;;;;;;;;;5007105;28;20419;-83
2021/03/09 13:20:11;;;;;;;5.20;4.30;;;;;;;;;;5022365;28;20450;-83
2021/03/09 13:22:50;;;;;;;5.43;3.10;;;;;;;;;;5022257;28;20780;-83
2021/03/09 13:25:20;;;;;;;4.97;4.47;;;;;;;;;;5022390;28;20399;-82
2021/03/09 13:27:47;;;;;;;6.50;4.30;;;;;;;;;;5023331;28;20749;-82
2021/03/09 13:30:18;;;;;;;8.10;4.23;;;;;;;;;;5021266;28;20518;-84
2021/03/09 13:32:45;;;;;;;4.83;3.10;;;;;;;;;;5004916;28;20487;-83
2021/03/09 13:35:24;;;;;;;6.40;3.37;;;;;;;;;;5005841;28;20462;-83
2021/03/09 13:37:51;;;;;;;6.17;2.67;;;;;;;;;;5020733;28;20857;-83
2021/03/09 13:40:17;;;;;;;4.57;2.70;;;;;;;;;;5005213;28;20534;-80
2021/03/09 13:42:44;;;;;;;5.20;3.00;;;;;;;;;;5008939;28;20430;-82
2021/03/09 13:45:13;;;;;;;10.43;5.07;;;;;;;;;;5029334;28;20425;-83
2021/03/09 13:47:40;;;;;;;4.80;4.18;;;;;;;;;;5013752;28;20431;-83
2021/03/09 13:50:08;;;;;;;6.03;5.00;;;;;;;;;;5028205;28;20659;-83
2021/03/09 13:52:35;;;;;;;5.87;5.37;;;;;;;;;;5013864;28;20419;-81
2021/03/09 13:55:04;;;;;;;4.70;4.13;;;;;;;;;;5013811;28;20482;-83
2021/03/09 13:57:31;;;;;;;4.60;3.13;;;;;;;;;;5013456;28;20187;-84
2021/03/09 14:00:00;;;;;;;4.38;3.45;;;;;;;;;;5029712;28;20492;-84
2021/03/09 14:02:27;;;;;;;4.97;3.07;;;;;;;;;;5010646;28;20267;-85
2021/03/09 14:04:54;;;;;;;7.78;4.55;;;;;;;;;;5028832;28;20521;-85
2021/03/09 14:07:22;;;;;;;5.65;3.95;;;;;;;;;;5030682;28;20316;-83
2021/03/09 14:09:50;;;;;;;5.32;3.42;;;;;;;;;;5014405;28;20226;-85
2021/03/09 14:12:19;;;;;;;6.50;3.85;;;;;;;;;;5032693;28;20176;-83
2021/03/09 14:14:46;;;;;;;4.13;3.33;;;;;;;;;;5018841;28;20231;-82
2021/03/09 14:17:17;;;;;;;11.77;4.00;;;;;;;;;;5036221;28;20168;-82
2021/03/09 14:19:45;;;;;;;9.63;4.30;;;;;;;;;;5019361;28;20215;-82
2021/03/09 14:22:19;;;;;;;5.77;3.83;;;;;;;;;;5016666;28;20187;-84
2021/03/09 14:24:48;;;;;;;5.95;4.07;;;;;;;;;;5029903;28;20419;-84
2021/03/09 14:27:16;;;;;;;3.75;3.15;;;;;;;;;;5012395;28;20172;-85
2021/03/09 14:29:43;;;;;;;5.80;4.40;;;;;;;;;;5011295;28;20211;-84
2021/03/09 14:32:13;;;;;;;10.98;6.05;;;;;;;;;;5013363;28;20463;-84
2021/03/09 14:34:42;;;;;;;6.70;4.00;;;;;;;;;;5011971;28;20710;-82
2021/03/09 14:37:09;;;;;;;5.38;3.47;;;;;;;;;;5011463;28;20173;-83
2021/03/09 14:39:36;;;;;;;3.77;2.80;;;;;;;;;;5012309;28;20191;-83
2021/03/09 14:42:04;;;;;;;38.60;32.10;;;;;;;;;;5029330;28;20478;-83
2021/03/09 14:44:41;;;;;;;;;;;;;;;;;;;;;
2021/03/09 14:47:08;;;;;;;9.70;4.90;;;;;;;;;;5029937;28;20171;-82
2021/03/09 14:49:41;;;;;;;5.63;3.83;;;;;;;;;;5030510;28;20406;-84
2021/03/09 14:52:09;;;;;;;6.50;4.47;;;;;;;;;;5012144;28;20419;-84
2021/03/09 14:54:38;;;;;;;7.87;4.23;;;;;;;;;;5011611;28;20808;-84
2021/03/09 14:57:06;;;;;;;6.23;3.57;;;;;;;;;;5010307;28;20454;-84
2021/03/09 14:59:45;;;;;;;4.13;3.72;;;;;;;;;;5027724;28;20422;-84
2021/03/09 15:02:15;;;;;;;3.55;3.25;;;;;;;;;;5012685;28;20172;-83
2021/03/09 15:04:42;;;;;;;6.75;2.92;;;;;;;;;;5012946;28;20215;-84